Abram, Texas
Current Conditions -  °F | °C
As of 1:53 PM on Thursday 23 Oct 2014 (Local Time) from KMFE Reporting Station
Scattered Clouds Scattered Clouds  
Wind Chill: 84°   Ceiling: Unl
Heat Index: 85°   Visibility: 10mi
Dew Point: 64°   Wind: 0mph
Humidity: 51%   Direction: NA
Pressure: 30.06"   Gusts: NA
Location:  26.2167°N, 98.325°W
Report Text: KMFE 231853Z 00000KT 10SM SCT042 29/18 A3006 RMK AO2 SLP176 T02890178
Loading
Personal Weather Stations






























Interactive Weather Map
Tropical Storm Tracking
New forecast layout! Learn more

10-Day Weather Forecast

Advertisements
Track Severe Weather on mobile